Addicks Barker, Texas
Current Conditions -  °F | °C
As of 10:15 PM on Sunday 21 Dec 2014 (Local Time) from KTME Reporting Station
Overcast Overcast  
Wind Chill: 13°   Ceiling: 4000
Heat Index: 13°   Visibility: 7mi
Dew Point: 12°   Wind: 8mph
Humidity: 94%   Direction: 160°SSE
Pressure: 29.91"   Gusts: NA
Location:  29.8301°N, 95.6661°W
Report Text: KTME 220415Z AUTO 16007KT 7SM FEW027 OVC040 13/12 A2991 RMK AO2
Loading
Personal Weather Stations






























Interactive Weather Map New forecast layout! Learn more

10-Day Weather Forecast

Advertisements
Track Severe Weather on mobile